Time;durP1;ratioP1;P1;durP2;ratioP2;P2;SDS_P1;SDS_P2;PMS_P1;PMS_P2;Temp;Humidity;BMP_temperature;BMP_pressure;BME280_temperature;BME280_humidity;BME280_pressure;Samples;Min_cycle;Max_cycle;Signal;HPM_P1;HPM_P2
2021/12/31 00:00:33;;;;;;;413.73;198.63;;;;;;;10.19;100.00;99625.09;4832557;29;20062;-67
2021/12/31 00:03:28;;;;;;;411.60;201.15;;;;;;;10.10;100.00;99633.75;4799594;29;20066;-67
2021/12/31 00:06:05;;;;;;;437.25;206.35;;;;;;;10.07;100.00;99635.50;4821017;29;20050;-67
2021/12/31 00:08:53;;;;;;;424.23;211.25;;;;;;;10.03;100.00;99642.44;4807160;29;20058;-67
2021/12/31 00:11:42;;;;;;;442.55;216.52;;;;;;;9.95;100.00;99646.81;4817248;29;20114;-66
2021/12/31 00:14:25;;;;;;;444.42;219.85;;;;;;;9.94;100.00;99648.53;4835445;29;20049;-67
2021/12/31 00:17:18;;;;;;;462.83;221.35;;;;;;;9.78;100.00;99652.16;4839871;29;20071;-66
2021/12/31 00:20:13;;;;;;;448.55;221.90;;;;;;;9.69;100.00;99643.69;4837991;29;20054;-67
2021/12/31 00:23:07;;;;;;;450.42;219.43;;;;;;;9.77;100.00;99644.44;4829339;29;20069;-67
2021/12/31 00:26:01;;;;;;;480.25;230.43;;;;;;;9.68;100.00;99641.97;4830317;29;20057;-66
2021/12/31 00:28:37;;;;;;;472.58;225.98;;;;;;;9.55;100.00;99646.41;4823666;29;20053;-67
2021/12/31 00:31:25;;;;;;;481.77;230.73;;;;;;;9.70;100.00;99642.81;4837039;29;20450;-66
2021/12/31 00:34:07;;;;;;;483.08;237.50;;;;;;;9.69;100.00;99643.69;4833172;29;20049;-66
2021/12/31 00:36:55;;;;;;;488.65;239.23;;;;;;;9.66;100.00;99641.16;4828894;29;20060;-67
2021/12/31 00:39:36;;;;;;;478.60;234.20;;;;;;;9.56;100.00;99638.69;4836565;29;20102;-66
2021/12/31 00:42:25;;;;;;;480.10;236.77;;;;;;;9.43;100.00;99644.78;4836141;29;20882;-67
2021/12/31 00:45:07;;;;;;;482.27;238.15;;;;;;;9.51;100.00;99645.56;4836661;29;20085;-66
2021/12/31 00:47:56;;;;;;;480.63;239.40;;;;;;;9.70;100.00;99641.09;4802071;29;20059;-67
2021/12/31 00:50:46;;;;;;;469.55;235.65;;;;;;;9.70;100.00;99640.25;4821562;29;20058;-66
2021/12/31 00:53:34;;;;;;;486.00;240.75;;;;;;;9.68;100.00;99636.81;4837463;29;20867;-67
2021/12/31 00:56:15;;;;;;;508.90;245.80;;;;;;;9.60;100.00;99640.34;4838229;29;20082;-67
2021/12/31 00:59:05;;;;;;;507.02;247.77;;;;;;;9.32;100.00;99643.22;4838349;29;20483;-67
2021/12/31 01:01:47;;;;;;;;;;;;;;;9.22;100.00;99639.88;4810740;29;20083;-66
2021/12/31 01:04:42;;;;;;;505.17;246.98;;;;;;;9.34;100.00;99639.72;4824069;29;19928;-66
2021/12/31 01:07:18;;;;;;;485.27;238.32;;;;;;;9.38;100.00;99649.13;4819440;29;20054;-67
2021/12/31 01:10:16;;;;;;;497.15;250.00;;;;;;;9.29;100.00;99644.09;4838310;29;20053;-67
2021/12/31 01:12:51;;;;;;;483.48;236.57;;;;;;;9.23;100.00;99639.00;4827775;29;20094;-66
2021/12/31 01:15:44;;;;;;;473.58;232.35;;;;;;;9.16;100.00;99638.22;4818880;29;20054;-67
2021/12/31 01:21:38;;;;;;;481.67;236.25;;;;;;;8.90;100.00;99637.56;4803554;29;20069;-67
2021/12/31 01:24:28;;;;;;;479.25;236.43;;;;;;;9.01;100.00;99642.63;4819295;29;20177;-66
2021/12/31 01:27:17;;;;;;;481.85;238.38;;;;;;;9.10;100.00;99643.38;4819113;29;20095;-67
2021/12/31 01:29:59;;;;;;;480.95;234.57;;;;;;;8.99;100.00;99652.06;4815444;29;20194;-67
2021/12/31 01:32:48;;;;;;;493.15;237.18;;;;;;;8.98;100.00;99642.66;4837706;29;20058;-66
2021/12/31 01:35:37;;;;;;;498.17;240.35;;;;;;;8.81;100.00;99651.34;4819806;29;20065;-64
2021/12/31 01:38:27;;;;;;;513.25;246.18;;;;;;;8.76;100.00;99642.81;4802775;29;20054;-65
2021/12/31 01:41:09;;;;;;;525.13;255.45;;;;;;;8.73;100.00;99640.25;4796920;29;20047;-67
2021/12/31 01:44:04;;;;;;;497.75;248.55;;;;;;;8.77;100.00;99639.41;4803486;29;20051;-64
2021/12/31 01:47:09;;;;;;;494.67;246.25;;;;;;;8.80;100.00;99646.22;4820580;29;20058;-65
2021/12/31 01:50:01;;;;;;;510.77;246.43;;;;;;;8.60;100.00;99648.94;4832417;29;20083;-65
2021/12/31 01:52:43;;;;;;;508.50;247.50;;;;;;;8.51;100.00;99650.69;4835066;29;20590;-65
2021/12/31 01:55:40;;;;;;;489.67;242.43;;;;;;;8.53;100.00;99654.13;4821630;29;20054;-65
2021/12/31 01:58:21;;;;;;;504.02;248.95;;;;;;;8.75;100.00;99658.25;4816842;29;20058;-65
2021/12/31 02:01:10;;;;;;;510.30;254.43;;;;;;;8.77;100.00;99659.94;4801321;29;20066;-65
2021/12/31 02:03:52;;;;;;;546.83;262.60;;;;;;;8.54;100.00;99661.78;4817756;29;20062;-65
2021/12/31 02:06:40;;;;;;;534.95;260.63;;;;;;;8.53;100.00;99662.69;4816823;29;20069;-64
2021/12/31 02:09:22;;;;;;;536.03;264.75;;;;;;;8.44;100.00;99667.84;4819315;29;20046;-65
2021/12/31 02:12:11;;;;;;;522.88;262.13;;;;;;;8.33;100.00;99672.19;4834558;29;20066;-65
2021/12/31 02:14:53;;;;;;;524.55;262.45;;;;;;;8.39;100.00;99667.00;4834851;29;20502;-65
2021/12/31 02:17:41;;;;;;;526.28;263.23;;;;;;;8.56;100.00;99672.91;4835790;29;20118;-65
2021/12/31 02:20:44;;;;;;;539.25;259.23;;;;;;;8.64;100.00;99681.41;4832449;29;20072;-65
2021/12/31 02:23:31;;;;;;;550.78;267.38;;;;;;;8.54;100.00;99677.19;4833705;29;20450;-65
2021/12/31 02:26:20;;;;;;;532.35;265.88;;;;;;;8.54;100.00;99677.19;4834241;29;20094;-65
2021/12/31 02:29:02;;;;;;;545.78;266.55;;;;;;;8.69;100.00;99683.97;4824781;29;20556;-65
2021/12/31 02:31:51;;;;;;;544.53;265.15;;;;;;;8.68;100.00;99684.84;4816602;29;20057;-65
2021/12/31 02:34:40;;;;;;;552.30;267.55;;;;;;;8.71;100.00;99685.66;4800102;29;20081;-64
2021/12/31 02:37:23;;;;;;;538.83;266.23;;;;;;;8.73;100.00;99693.34;4795792;29;20167;-65
2021/12/31 02:40:23;;;;;;;538.30;267.02;;;;;;;8.91;100.00;99692.38;4812603;29;20077;-64
2021/12/31 02:42:59;;;;;;;552.03;269.27;;;;;;;8.98;100.00;99699.19;4815909;29;20050;-65
2021/12/31 02:45:49;;;;;;;542.53;261.52;;;;;;;9.16;100.00;99704.19;4818159;29;20054;-65
2021/12/31 02:48:37;;;;;;;540.30;267.50;;;;;;;9.09;100.00;99705.09;4819000;29;20067;-64
2021/12/31 02:51:28;;;;;;;538.78;262.65;;;;;;;9.10;100.00;99712.78;4817704;29;20551;-64
2021/12/31 02:54:13;;;;;;;556.95;270.05;;;;;;;9.11;100.00;99708.50;4818230;29;20058;-65
2021/12/31 02:57:03;;;;;;;529.30;263.55;;;;;;;9.32;100.00;99702.34;4818908;29;20141;-65
2021/12/31 02:59:45;;;;;;;526.43;267.70;;;;;;;9.31;100.00;99713.50;4818613;29;20500;-66
2021/12/31 03:02:37;;;;;;;522.47;258.33;;;;;;;9.35;100.00;99716.00;4802109;29;20058;-64
2021/12/31 03:05:25;;;;;;;527.53;263.65;;;;;;;9.41;100.00;99721.13;4817485;29;20532;-65
2021/12/31 03:08:16;;;;;;;536.50;265.50;;;;;;;9.47;100.00;99722.78;4823047;29;20061;-65
2021/12/31 03:10:59;;;;;;;528.42;261.95;;;;;;;9.94;100.00;99723.16;4808277;29;20053;-64
2021/12/31 03:13:52;;;;;;;515.10;266.55;;;;;;;10.21;100.00;99728.94;4827378;29;20046;-65
2021/12/31 03:16:40;;;;;;;523.97;267.83;;;;;;;10.19;100.00;99739.22;4832731;29;20121;-65
2021/12/31 03:19:34;;;;;;;509.10;265.80;;;;;;;10.33;100.00;99739.91;4833655;29;20057;-65
2021/12/31 03:22:10;;;;;;;509.15;265.92;;;;;;;10.64;100.00;99748.09;4833092;29;20534;-64
2021/12/31 03:24:57;;;;;;;504.38;260.40;;;;;;;11.07;100.00;99743.22;4833827;29;20046;-65
2021/12/31 03:27:38;;;;;;;510.02;262.52;;;;;;;11.39;100.00;99754.75;4830332;29;20506;-65
2021/12/31 03:30:29;;;;;;;464.42;249.25;;;;;;;11.65;100.00;99752.59;4813441;29;20096;-65
2021/12/31 03:33:18;;;;;;;465.45;251.18;;;;;;;11.87;100.00;99764.28;4812083;29;20166;-65
2021/12/31 03:36:13;;;;;;;461.23;245.48;;;;;;;12.26;100.00;99761.84;4814381;29;20053;-66
2021/12/31 03:38:48;;;;;;;462.55;243.73;;;;;;;12.62;100.00;99766.25;4811232;29;20551;-65
2021/12/31 03:41:38;;;;;;;429.65;234.10;;;;;;;12.91;100.00;99768.22;4824207;29;20054;-65
2021/12/31 03:44:26;;;;;;;436.70;231.52;;;;;;;13.23;100.00;99775.31;4823715;29;20087;-65
2021/12/31 03:47:15;;;;;;;403.20;211.68;;;;;;;13.60;100.00;99774.41;4820116;29;20087;-63
2021/12/31 03:49:57;;;;;;;379.83;204.43;;;;;;;13.86;100.00;99777.19;4821782;29;20047;-63
2021/12/31 03:52:45;;;;;;;364.85;187.02;;;;;;;14.32;100.00;99776.81;4812639;29;20120;-65
2021/12/31 03:55:26;;;;;;;373.30;187.40;;;;;;;14.46;100.00;99784.25;4835555;29;20054;-64
2021/12/31 03:58:22;;;;;;;363.05;186.23;;;;;;;14.84;100.00;99793.53;4835441;29;20058;-64
2021/12/31 04:00:57;;;;;;;371.00;186.20;;;;;;;15.18;100.00;99798.53;4818784;29;20046;-65
2021/12/31 04:03:47;;;;;;;348.77;172.32;;;;;;;15.33;100.00;99801.50;4813948;29;20074;-65
2021/12/31 04:06:28;;;;;;;340.60;168.50;;;;;;;15.46;98.66;99812.38;4819629;29;20065;-65
2021/12/31 04:09:17;;;;;;;337.13;165.82;;;;;;;15.84;97.17;99799.91;4822794;29;20133;-65
2021/12/31 04:11:59;;;;;;;329.20;166.50;;;;;;;15.87;93.49;99803.28;4831006;29;20076;-66
2021/12/31 04:14:49;;;;;;;322.55;166.05;;;;;;;16.24;94.10;99802.84;4825261;29;20292;-65
2021/12/31 04:17:30;;;;;;;351.17;172.05;;;;;;;16.35;91.16;99810.28;4819880;29;20060;-66
2021/12/31 04:23:28;;;;;;;338.77;182.30;;;;;;;16.29;88.59;99811.31;4826121;29;20060;-66
2021/12/31 04:26:17;;;;;;;344.27;178.73;;;;;;;16.56;85.94;99808.66;4811350;29;20094;-65
2021/12/31 04:29:00;;;;;;;312.10;165.10;;;;;;;16.23;83.40;99811.53;4824454;29;20062;-65
2021/12/31 04:31:48;;;;;;;323.15;164.90;;;;;;;16.60;82.66;99815.47;4823444;29;20535;-65
2021/12/31 04:34:31;;;;;;;317.25;163.20;;;;;;;16.45;84.26;99819.44;4822752;29;20066;-65
2021/12/31 04:37:19;;;;;;;327.58;163.75;;;;;;;16.59;81.90;99821.56;4822001;29;20050;-65
2021/12/31 04:40:01;;;;;;;322.67;167.90;;;;;;;16.88;82.03;99820.50;4819555;29;20151;-65
2021/12/31 04:42:51;;;;;;;320.52;170.40;;;;;;;17.24;79.05;99818.28;4824069;29;20344;-65
2021/12/31 04:45:34;;;;;;;328.92;169.32;;;;;;;17.00;79.72;99822.69;4820534;29;20114;-65
2021/12/31 04:48:23;;;;;;;322.98;173.95;;;;;;;17.04;79.51;99819.03;4828689;29;20061;-65
2021/12/31 04:51:06;;;;;;;315.27;160.40;;;;;;;17.04;78.72;99817.28;4821686;29;20083;-65
2021/12/31 04:53:55;;;;;;;265.85;139.55;;;;;;;17.13;75.35;99811.72;4825155;29;20062;-64
2021/12/31 04:56:37;;;;;;;260.15;133.73;;;;;;;16.55;76.45;99812.16;4825638;29;20077;-65
2021/12/31 04:59:27;;;;;;;276.13;139.50;;;;;;;16.86;75.61;99815.38;4823050;29;20507;-64
2021/12/31 05:02:09;;;;;;;245.57;131.95;;;;;;;16.84;74.31;99819.81;4798113;29;20511;-66
2021/12/31 05:04:58;;;;;;;277.15;135.63;;;;;;;17.10;74.86;99821.41;4802664;29;20065;-64
2021/12/31 05:07:40;;;;;;;284.38;136.82;;;;;;;17.47;73.09;99823.44;4822390;29;20120;-65
2021/12/31 05:10:33;;;;;;;275.92;139.63;;;;;;;17.44;74.58;99823.53;4829925;29;20102;-64
2021/12/31 05:13:21;;;;;;;279.65;134.85;;;;;;;17.35;72.04;99822.16;4829559;29;20054;-62
2021/12/31 05:16:06;;;;;;;255.70;128.40;;;;;;;17.41;73.34;99818.44;4825316;29;20082;-64
2021/12/31 05:19:00;;;;;;;216.77;109.82;;;;;;;17.23;70.40;99830.47;4834704;29;20573;-65
2021/12/31 05:21:48;;;;;;;222.30;107.45;;;;;;;17.62;71.56;99835.88;4824689;29;20125;-65
2021/12/31 05:24:36;;;;;;;220.60;105.07;;;;;;;17.53;69.64;99831.84;4824771;29;20050;-64
2021/12/31 05:27:18;;;;;;;201.35;98.15;;;;;;;17.25;67.67;99830.38;4826624;29;20126;-64
2021/12/31 05:30:07;;;;;;;206.45;99.28;;;;;;;17.46;67.58;99829.56;4826381;29;20153;-64
2021/12/31 05:32:49;;;;;;;209.77;101.90;;;;;;;17.42;67.84;99834.03;4822190;29;20114;-63
2021/12/31 05:35:38;;;;;;;213.55;102.60;;;;;;;17.27;67.56;99828.56;4821525;29;20065;-64
2021/12/31 05:38:20;;;;;;;209.20;103.00;;;;;;;17.43;66.10;99832.25;4819621;29;20054;-64
2021/12/31 05:41:09;;;;;;;185.55;95.63;;;;;;;17.90;66.49;99820.78;4824259;29;20130;-64
2021/12/31 05:43:51;;;;;;;187.25;95.72;;;;;;;17.71;67.05;99821.63;4823770;29;20058;-64
2021/12/31 05:46:45;;;;;;;214.45;98.28;;;;;;;17.99;65.39;99816.97;4829190;29;20091;-63
2021/12/31 05:49:27;;;;;;;196.35;100.07;;;;;;;17.93;63.69;99815.47;4833062;29;20098;-63
2021/12/31 05:52:16;;;;;;;197.10;99.30;;;;;;;18.11;65.73;99807.78;4828830;29;20062;-64
2021/12/31 05:54:58;;;;;;;188.55;99.57;;;;;;;18.52;63.38;99808.56;4831985;29;20575;-64
2021/12/31 05:57:48;;;;;;;177.90;93.05;;;;;;;18.51;67.55;99797.31;4823444;29;20078;-65
2021/12/31 06:00:38;;;;;;;172.05;87.07;;;;;;;18.35;63.02;99806.72;4820204;29;20060;-62
2021/12/31 06:03:27;;;;;;;162.90;83.93;;;;;;;18.39;64.10;99797.84;4811854;29;20092;-65
2021/12/31 06:06:10;;;;;;;171.63;86.13;;;;;;;18.35;62.88;99797.16;4818895;29;20483;-63
2021/12/31 06:08:58;;;;;;;176.90;89.03;;;;;;;18.49;62.96;99791.31;4819154;29;20059;-63
2021/12/31 06:11:43;;;;;;;179.00;93.70;;;;;;;18.78;62.23;99784.78;4817198;29;20471;-63
2021/12/31 06:14:32;;;;;;;189.43;94.45;;;;;;;19.02;63.04;99794.09;4835555;29;20073;-63
2021/12/31 06:17:21;;;;;;;180.43;88.78;;;;;;;18.58;63.50;99793.53;4837125;29;20058;-64
2021/12/31 06:20:17;;;;;;;181.68;90.63;;;;;;;18.54;64.21;99789.31;4836491;29;20173;-63
2021/12/31 06:23:05;;;;;;;174.32;92.30;;;;;;;18.30;63.53;99780.81;4837490;29;20129;-63
2021/12/31 06:25:54;;;;;;;184.25;93.35;;;;;;;18.59;63.49;99782.19;4836946;29;20383;-64
2021/12/31 06:28:43;;;;;;;163.93;87.43;;;;;;;18.77;62.62;99782.25;4832354;29;20138;-64
2021/12/31 06:31:32;;;;;;;172.85;87.20;;;;;;;18.95;61.78;99778.78;4834384;29;20161;-63
2021/12/31 06:34:14;;;;;;;164.00;85.82;;;;;;;18.83;61.44;99776.78;4835391;29;20046;-64
2021/12/31 06:37:03;;;;;;;163.77;84.97;;;;;;;18.85;59.60;99773.16;4820963;29;20057;-65
2021/12/31 06:39:46;;;;;;;163.30;83.60;;;;;;;18.71;60.58;99768.56;4812947;29;20058;-64
2021/12/31 06:42:35;;;;;;;152.95;82.07;;;;;;;18.73;62.78;99758.06;4817725;29;20066;-64
2021/12/31 06:45:17;;;;;;;153.02;79.68;;;;;;;18.80;59.72;99756.84;4818837;29;20376;-64
2021/12/31 06:48:06;;;;;;;145.85;72.47;;;;;;;18.80;60.67;99746.41;4831172;29;20058;-63
2021/12/31 06:50:48;;;;;;;150.75;77.78;;;;;;;18.79;59.05;99752.56;4824330;29;20135;-64
2021/12/31 06:53:37;;;;;;;156.00;80.20;;;;;;;18.77;59.04;99746.53;4828294;29;20494;-63
2021/12/31 06:56:19;;;;;;;160.77;84.15;;;;;;;18.90;58.02;99739.84;4825413;29;20110;-64
2021/12/31 06:59:08;;;;;;;172.48;88.40;;;;;;;19.03;60.62;99734.88;4830453;29;20061;-67
2021/12/31 07:01:58;;;;;;;182.68;91.95;;;;;;;18.86;60.96;99732.22;4825230;29;20042;-65
2021/12/31 07:04:40;;;;;;;169.68;93.85;;;;;;;18.94;61.79;99722.25;4826364;29;20081;-64
2021/12/31 07:07:28;;;;;;;172.15;90.40;;;;;;;18.66;60.79;99731.41;4827908;29;20810;-63
2021/12/31 07:10:16;;;;;;;176.32;89.20;;;;;;;18.93;61.20;99716.19;4824798;29;20047;-65
2021/12/31 07:13:00;;;;;;;166.85;90.45;;;;;;;18.82;60.34;99715.88;4822011;29;20133;-64
2021/12/31 07:15:49;;;;;;;157.70;87.63;;;;;;;18.83;59.32;99714.94;4827533;29;20053;-65
2021/12/31 07:18:38;;;;;;;;;;;;;;;18.86;61.72;99708.72;4821702;29;20138;-64
2021/12/31 07:21:33;;;;;;;170.13;84.93;;;;;;;19.07;61.43;99703.34;4825113;29;19929;-64
2021/12/31 07:24:09;;;;;;;176.15;85.50;;;;;;;19.16;60.02;99690.72;4823863;29;20059;-64
2021/12/31 07:26:58;;;;;;;158.80;77.05;;;;;;;19.16;57.47;99686.34;4825292;29;20054;-63
2021/12/31 07:29:49;;;;;;;148.50;77.78;;;;;;;19.19;57.02;99690.59;4823191;29;20061;-65
2021/12/31 07:32:38;;;;;;;168.90;85.78;;;;;;;19.05;55.97;99680.81;4825266;29;20654;-66
2021/12/31 07:35:20;;;;;;;163.27;83.90;;;;;;;19.09;55.31;99674.50;4826618;29;20133;-65
2021/12/31 07:38:17;;;;;;;166.07;81.88;;;;;;;19.23;57.14;99672.09;4825272;29;20083;-64
2021/12/31 07:40:59;;;;;;;168.50;88.80;;;;;;;19.33;57.74;99668.06;4825232;29;20054;-64
2021/12/31 07:43:48;;;;;;;183.35;98.13;;;;;;;19.37;57.27;99663.56;4834773;29;20144;-65
2021/12/31 07:46:29;;;;;;;217.45;106.95;;;;;;;19.27;58.77;99660.53;4830363;29;20047;-64
2021/12/31 07:49:24;;;;;;;238.55;123.82;;;;;;;19.06;60.62;99649.41;4820278;29;20062;-64
2021/12/31 07:51:59;;;;;;;228.82;115.25;;;;;;;18.95;59.29;99649.06;4820680;29;20072;-64
2021/12/31 07:54:54;;;;;;;188.93;95.72;;;;;;;18.94;57.39;99643.91;4820761;29;20054;-65
2021/12/31 07:57:30;;;;;;;149.20;81.78;;;;;;;18.71;52.37;99640.66;4823343;29;20053;-65
2021/12/31 08:00:25;;;;;;;161.48;85.93;;;;;;;18.56;50.86;99636.16;4824114;29;20069;-65
2021/12/31 08:03:01;;;;;;;181.07;92.18;;;;;;;18.65;52.02;99622.69;4826074;29;20046;-66
2021/12/31 08:05:57;;;;;;;185.77;89.25;;;;;;;18.46;49.97;99624.41;4827204;29;20046;-67
2021/12/31 08:08:32;;;;;;;175.00;96.43;;;;;;;18.68;55.03;99617.28;4826128;29;20061;-66
2021/12/31 08:11:28;;;;;;;181.52;98.07;;;;;;;18.95;55.63;99617.72;4826260;29;20050;-66
2021/12/31 08:14:04;;;;;;;201.85;102.00;;;;;;;18.95;56.31;99611.66;4821256;29;20087;-67
2021/12/31 08:16:52;;;;;;;202.02;103.65;;;;;;;18.92;56.60;99604.81;4825834;29;20046;-66
2021/12/31 08:19:34;;;;;;;209.55;105.70;;;;;;;18.98;57.09;99598.47;4824991;29;20101;-66
2021/12/31 08:22:24;;;;;;;161.23;85.68;;;;;;;18.93;52.69;99600.44;4798948;29;20131;-66
2021/12/31 08:25:13;;;;;;;141.45;67.63;;;;;;;18.80;48.77;99596.75;4813698;29;20065;-66
2021/12/31 08:27:55;;;;;;;137.43;67.80;;;;;;;18.85;49.85;99594.75;4820540;29;20058;-67
2021/12/31 08:30:43;;;;;;;139.05;72.20;;;;;;;18.92;51.12;99588.28;4827876;29;20144;-66
2021/12/31 08:33:32;;;;;;;121.95;65.28;;;;;;;18.82;51.49;99597.53;4834528;29;20061;-66
2021/12/31 08:36:20;;;;;;;125.85;64.60;;;;;;;18.76;49.76;99588.19;4837666;29;20062;-67
2021/12/31 08:39:10;;;;;;;122.70;62.58;;;;;;;18.72;49.49;99586.69;4826570;29;20066;-68
2021/12/31 08:41:58;;;;;;;117.00;59.03;;;;;;;18.66;49.84;99590.44;4822766;29;20054;-67
2021/12/31 08:44:40;;;;;;;104.32;54.20;;;;;;;18.65;46.85;99591.34;4820371;29;20058;-67
2021/12/31 08:47:30;;;;;;;112.05;57.72;;;;;;;18.76;48.33;99588.19;4820429;29;20491;-66
2021/12/31 08:50:12;;;;;;;122.70;63.33;;;;;;;18.76;50.65;99580.38;4803966;29;20053;-66
2021/12/31 08:53:02;;;;;;;122.13;63.65;;;;;;;18.67;47.50;99575.63;4820368;29;20747;-66
2021/12/31 08:55:44;;;;;;;135.75;63.35;;;;;;;18.81;49.15;99565.34;4834372;29;20841;-66
2021/12/31 08:58:33;;;;;;;130.38;63.25;;;;;;;18.76;48.94;99569.94;4823994;29;20057;-66
2021/12/31 09:01:15;;;;;;;127.40;60.90;;;;;;;18.77;50.01;99562.94;4826172;29;20064;-66
2021/12/31 09:04:05;;;;;;;111.88;56.55;;;;;;;18.73;48.13;99568.34;4817580;29;20081;-66
2021/12/31 09:06:46;;;;;;;115.60;57.90;;;;;;;18.72;46.63;99560.56;4818093;29;20568;-67
2021/12/31 09:09:34;;;;;;;110.93;53.80;;;;;;;18.62;46.19;99554.94;4830842;29;20057;-66
2021/12/31 09:12:17;;;;;;;107.40;54.88;;;;;;;18.63;45.33;99545.34;4826236;29;20073;-66
2021/12/31 09:15:06;;;;;;;110.72;53.10;;;;;;;18.60;45.85;99551.56;4828131;29;20087;-64
2021/12/31 09:17:49;;;;;;;104.93;54.05;;;;;;;18.64;45.99;99550.50;4831077;29;20046;-66
2021/12/31 09:20:44;;;;;;;104.18;50.45;;;;;;;18.66;44.73;99553.03;4821278;29;20058;-66
2021/12/31 09:23:20;;;;;;;95.50;47.50;;;;;;;18.69;44.60;99553.72;4826844;29;20085;-66
2021/12/31 09:26:08;;;;;;;93.82;44.60;;;;;;;18.59;44.55;99542.06;4823681;29;20479;-67
2021/12/31 09:28:50;;;;;;;82.90;45.25;;;;;;;18.65;46.28;99543.53;4818283;29;20100;-66
2021/12/31 09:31:39;;;;;;;74.63;38.70;;;;;;;18.58;41.47;99548.22;4824167;29;20127;-66
2021/12/31 09:34:21;;;;;;;66.85;35.50;;;;;;;18.54;42.21;99546.63;4824949;29;20062;-66
2021/12/31 09:37:10;;;;;;;70.07;33.30;;;;;;;18.55;40.55;99540.47;4823996;29;20054;-67
2021/12/31 09:39:52;;;;;;;56.28;32.22;;;;;;;18.59;42.62;99534.25;4822633;29;20053;-67
2021/12/31 09:42:45;;;;;;;72.70;35.33;;;;;;;18.62;41.08;99534.06;4825417;29;20083;-66
2021/12/31 09:45:29;;;;;;;88.72;45.40;;;;;;;18.53;44.11;99529.25;4827934;29;20058;-66
2021/12/31 09:48:21;;;;;;;98.38;48.10;;;;;;;18.58;46.94;99529.09;4828998;29;20054;-66
2021/12/31 09:51:06;;;;;;;106.97;51.15;;;;;;;18.54;47.60;99520.53;4827532;29;20071;-66
2021/12/31 09:53:58;;;;;;;100.32;49.72;;;;;;;18.47;46.56;99534.78;4824709;29;20050;-66
2021/12/31 09:56:48;;;;;;;100.55;47.72;;;;;;;18.56;46.65;99534.38;4824571;29;20130;-66
2021/12/31 09:59:30;;;;;;;104.13;44.47;;;;;;;18.53;44.74;99526.66;4823635;29;20053;-65
2021/12/31 10:02:20;;;;;;;80.47;40.58;;;;;;;18.48;42.75;99526.03;4822956;29;20049;-66
2021/12/31 10:05:10;;;;;;;71.20;37.55;;;;;;;18.46;43.35;99527.03;4823484;29;20060;-65
2021/12/31 10:07:59;;;;;;;68.25;36.05;;;;;;;18.43;41.87;99521.97;4827556;29;20122;-66
2021/12/31 10:10:43;;;;;;;71.05;36.90;;;;;;;18.43;43.22;99519.38;4823922;29;20053;-65
2021/12/31 10:13:32;;;;;;;68.90;34.88;;;;;;;18.35;43.21;99524.97;4811522;29;20137;-65
2021/12/31 10:16:37;;;;;;;70.45;32.92;;;;;;;18.28;40.19;99526.13;4826231;29;20080;-66
2021/12/31 10:19:26;;;;;;;55.35;29.35;;;;;;;18.33;40.80;99522.41;4824264;29;20106;-66
2021/12/31 10:22:17;;;;;;;67.60;32.20;;;;;;;18.36;40.44;99514.41;4825786;29;20054;-67
2021/12/31 10:25:06;;;;;;;63.17;32.75;;;;;;;18.21;41.23;99519.53;4817777;29;20050;-66
2021/12/31 10:27:52;;;;;;;61.42;34.47;;;;;;;18.19;45.29;99513.56;4803771;29;20134;-66
2021/12/31 10:30:41;;;;;;;60.83;33.83;;;;;;;18.09;43.70;99510.53;4818622;29;20060;-65
2021/12/31 10:33:43;;;;;;;68.07;35.95;;;;;;;18.03;42.73;99512.59;4823627;29;20054;-65
2021/12/31 10:36:41;;;;;;;78.28;34.10;;;;;;;18.00;42.36;99503.16;4823594;29;20058;-65
2021/12/31 10:39:29;;;;;;;77.60;33.88;;;;;;;17.93;43.18;99505.22;4826156;29;20046;-66
2021/12/31 10:42:20;;;;;;;62.72;33.60;;;;;;;17.94;43.90;99501.69;4827338;29;20572;-65
2021/12/31 10:45:04;;;;;;;70.90;34.38;;;;;;;17.79;44.26;99494.59;4827537;29;20069;-65
2021/12/31 10:47:53;;;;;;;67.38;32.65;;;;;;;17.66;43.29;99498.66;4828474;29;20352;-65
2021/12/31 10:50:51;;;;;;;79.05;33.30;;;;;;;17.63;43.04;99498.81;4816083;29;20054;-65
2021/12/31 10:53:49;;;;;;;67.22;34.30;;;;;;;17.65;44.44;99499.56;4815778;29;20054;-65
2021/12/31 10:56:49;;;;;;;67.90;34.13;;;;;;;17.49;47.12;99490.72;4816557;29;20054;-65
2021/12/31 10:59:24;;;;;;;76.15;35.35;;;;;;;17.51;47.30;99494.09;4822492;29;20050;-65
2021/12/31 11:02:14;;;;;;;85.07;36.63;;;;;;;17.48;49.88;99499.47;4816447;29;20055;-66
2021/12/31 11:05:03;;;;;;;82.20;36.33;;;;;;;17.34;51.54;99491.41;4825522;29;20050;-65
2021/12/31 11:07:46;;;;;;;79.68;35.90;;;;;;;17.25;49.99;99490.03;4824889;29;20056;-66
2021/12/31 11:10:54;;;;;;;77.28;36.97;;;;;;;17.23;50.59;99483.25;4823393;29;20110;-66
2021/12/31 11:13:44;;;;;;;76.88;37.17;;;;;;;17.05;52.41;99485.72;4810679;29;20614;-66
2021/12/31 11:16:28;;;;;;;78.28;36.33;;;;;;;17.07;55.21;99494.31;4826672;29;20508;-66
2021/12/31 11:19:25;;;;;;;79.65;37.65;;;;;;;16.91;54.53;99479.44;4819986;29;20058;-66
2021/12/31 11:22:15;;;;;;;72.03;36.83;;;;;;;16.82;57.92;99484.13;4821046;29;20069;-65
2021/12/31 11:24:57;;;;;;;86.20;36.55;;;;;;;16.69;57.36;99484.69;4816786;29;20054;-69
2021/12/31 11:27:54;;;;;;;75.13;36.28;;;;;;;16.56;58.70;99486.06;4817277;29;20058;-67
2021/12/31 11:30:39;;;;;;;81.43;37.60;;;;;;;16.41;59.36;99485.81;4801087;29;20141;-66
2021/12/31 11:33:35;;;;;;;76.13;37.30;;;;;;;16.34;59.99;99481.75;4828110;29;20057;-66
2021/12/31 11:36:12;;;;;;;90.97;37.88;;;;;;;16.19;61.50;99477.19;4827910;29;20065;-66
2021/12/31 11:39:14;;;;;;;84.10;37.97;;;;;;;16.10;63.51;99477.53;4822844;29;20083;-69
2021/12/31 11:42:14;;;;;;;82.10;39.33;;;;;;;15.97;66.81;99473.72;4826591;29;20050;-67
2021/12/31 11:45:07;;;;;;;87.20;39.88;;;;;;;15.83;67.08;99478.59;4820810;29;20556;-66
2021/12/31 11:47:57;;;;;;;92.75;39.63;;;;;;;15.75;69.98;99478.06;4824875;29;20081;-69
2021/12/31 11:51:04;;;;;;;78.25;39.67;;;;;;;15.63;69.73;99476.78;4824705;29;20050;-68
2021/12/31 11:54:06;;;;;;;88.72;40.40;;;;;;;15.54;72.46;99477.13;4823202;29;20522;-71
2021/12/31 11:57:00;;;;;;;89.75;41.15;;;;;;;15.42;72.54;99487.91;4824447;29;20134;-70
2021/12/31 11:59:44;;;;;;;88.50;41.47;;;;;;;15.28;73.76;99491.03;4820610;29;20490;-68
2021/12/31 12:02:40;;;;;;;92.30;42.92;;;;;;;15.07;76.25;99492.66;4830567;29;20371;-71
2021/12/31 12:05:26;;;;;;;90.95;44.30;;;;;;;15.01;74.80;99489.41;4812800;29;20479;-71
2021/12/31 12:08:38;;;;;;;89.63;43.58;;;;;;;14.90;75.42;99490.63;4829707;29;20045;-68
2021/12/31 12:11:53;;;;;;;102.32;43.80;;;;;;;14.78;76.56;99491.03;4817084;29;20123;-70
2021/12/31 12:14:54;;;;;;;105.47;46.42;;;;;;;14.77;75.95;99486.75;4812621;29;20161;-67
2021/12/31 12:17:29;;;;;;;104.55;46.90;;;;;;;14.48;75.67;99486.88;4830844;29;20081;-66
2021/12/31 12:20:26;;;;;;;106.32;47.45;;;;;;;14.82;74.23;99490.06;4828673;29;20069;-65
2021/12/31 12:23:14;;;;;;;103.57;49.10;;;;;;;14.85;74.92;99489.94;4827585;29;20667;-66
2021/12/31 12:26:04;;;;;;;109.95;49.38;;;;;;;14.79;73.96;99486.72;4830049;29;20134;-65
2021/12/31 12:28:45;;;;;;;123.50;55.38;;;;;;;14.62;75.88;99487.28;4837752;29;20098;-64
2021/12/31 12:31:39;;;;;;;127.75;54.20;;;;;;;14.52;77.39;99480.72;4829447;29;20069;-64
2021/12/31 12:34:21;;;;;;;144.75;57.08;;;;;;;14.44;78.18;99491.34;4825587;29;20115;-61
2021/12/31 12:37:13;;;;;;;139.68;55.53;;;;;;;14.25;78.60;99487.59;4829247;29;20114;-64
2021/12/31 12:40:06;;;;;;;141.20;57.63;;;;;;;14.16;79.58;99487.88;4829070;29;20058;-63
2021/12/31 12:42:48;;;;;;;134.27;55.30;;;;;;;14.04;79.16;99489.13;4828159;29;20064;-63
2021/12/31 12:45:37;;;;;;;140.45;56.50;;;;;;;13.92;83.27;99491.25;4830362;29;20061;-64